Time;durP1;ratioP1;P1;durP2;ratioP2;P2;SDS_P1;SDS_P2;PMS_P1;PMS_P2;Temp;Humidity;BMP_temperature;BMP_pressure;BME280_temperature;BME280_humidity;BME280_pressure;Samples;Min_cycle;Max_cycle;Signal;HPM_P1;HPM_P2
2022/04/25 00:01:15;;;;;;;16.30;13.37;;;11.60;99.90;;;;;;5033871;28;20208;-75
2022/04/25 00:03:41;;;;;;;14.90;13.23;;;11.60;99.90;;;;;;5032695;28;20311;-72
2022/04/25 00:06:07;;;;;;;15.50;13.43;;;11.60;99.90;;;;;;5033226;28;20980;-73
2022/04/25 00:08:33;;;;;;;17.40;15.60;;;11.60;99.90;;;;;;5027247;28;20525;-73
2022/04/25 00:10:58;;;;;;;20.03;16.27;;;11.60;99.90;;;;;;5032094;28;20236;-75
2022/04/25 00:13:24;;;;;;;17.97;16.07;;;11.30;99.90;;;;;;5028855;28;20200;-75
2022/04/25 00:15:50;;;;;;;20.00;16.63;;;11.30;99.90;;;;;;5019568;28;20188;-73
2022/04/25 00:18:15;;;;;;;20.83;18.10;;;11.20;99.90;;;;;;5029234;28;20941;-72
2022/04/25 00:20:41;;;;;;;20.57;16.70;;;11.10;99.90;;;;;;5029709;28;20209;-75
2022/04/25 00:23:07;;;;;;;21.43;17.80;;;11.00;99.90;;;;;;5031841;28;20269;-72
2022/04/25 00:25:34;;;;;;;21.93;17.90;;;11.00;99.90;;;;;;5032125;28;20180;-74
2022/04/25 00:28:07;;;;;;;22.67;18.83;;;11.00;99.90;;;;;;5049908;28;20189;-74
2022/04/25 00:30:35;;;;;;;23.73;17.10;;;11.00;99.90;;;;;;5032718;28;20441;-73
2022/04/25 00:33:02;;;;;;;24.70;17.73;;;11.00;99.90;;;;;;5028523;28;20497;-72
2022/04/25 00:35:28;;;;;;;23.93;18.50;;;11.00;99.90;;;;;;5034414;28;20431;-72
2022/04/25 00:37:54;;;;;;;23.13;18.00;;;11.00;99.90;;;;;;5032718;28;20426;-74
2022/04/25 00:40:22;;;;;;;24.47;19.03;;;11.10;99.90;;;;;;5043801;28;21130;-71
2022/04/25 00:42:48;;;;;;;24.10;19.37;;;11.00;99.90;;;;;;5032480;28;20462;-73
2022/04/25 00:45:14;;;;;;;23.80;18.70;;;11.00;99.90;;;;;;5048314;28;20430;-72
2022/04/25 00:47:41;;;;;;;25.87;20.23;;;11.10;99.90;;;;;;5032048;28;20495;-72
2022/04/25 00:50:08;;;;;;;26.63;19.63;;;11.00;99.90;;;;;;5032555;28;20457;-73
2022/04/25 00:52:34;;;;;;;26.60;19.90;;;11.00;99.90;;;;;;5038397;28;20438;-74
2022/04/25 00:55:06;;;;;;;26.40;19.37;;;11.00;99.90;;;;;;5036259;28;20780;-74
2022/04/25 00:57:33;;;;;;;28.93;19.20;;;11.00;99.90;;;;;;5037536;28;20434;-73
2022/04/25 00:59:58;;;;;;;27.57;19.03;;;11.10;99.90;;;;;;5034948;28;20819;-74
2022/04/25 01:02:28;;;;;;;22.80;16.90;;;11.20;99.90;;;;;;5038806;28;20454;-72
2022/04/25 01:05:00;;;;;;;22.40;18.20;;;11.20;99.90;;;;;;5037112;28;20674;-73
2022/04/25 01:07:25;;;;;;;26.23;20.67;;;11.20;99.90;;;;;;5033522;28;20446;-74
2022/04/25 01:09:52;;;;;;;28.03;20.17;;;11.20;99.90;;;;;;5035256;28;21717;-73
2022/04/25 01:12:18;;;;;;;26.07;19.87;;;11.10;99.90;;;;;;5033572;28;20196;-74
2022/04/25 01:14:44;;;;;;;25.90;19.97;;;11.10;99.90;;;;;;5038323;28;20427;-74
2022/04/25 01:17:09;;;;;;;23.30;19.00;;;11.20;99.90;;;;;;5034503;28;20172;-73
2022/04/25 01:19:38;;;;;;;25.70;19.37;;;11.10;99.90;;;;;;5033076;28;20525;-73
2022/04/25 01:22:13;;;;;;;26.47;20.73;;;11.20;99.90;;;;;;5036271;28;20329;-74
2022/04/25 01:27:23;;;;;;;24.97;19.90;;;11.10;99.90;;;;;;5034469;28;20495;-73
2022/04/25 01:29:52;;;;;;;28.10;21.30;;;11.10;99.90;;;;;;5034853;28;21099;-74
2022/04/25 01:32:22;;;;;;;27.57;21.23;;;11.00;99.90;;;;;;5054396;28;20214;-71
2022/04/25 01:34:48;;;;;;;26.67;20.60;;;10.80;99.90;;;;;;5036160;28;20441;-74
2022/04/25 01:37:18;;;;;;;27.50;20.10;;;10.80;99.90;;;;;;5037246;28;20541;-74
2022/04/25 01:39:49;;;;;;;29.33;21.50;;;10.80;99.90;;;;;;5032352;28;20466;-72
2022/04/25 01:42:16;;;;;;;26.50;19.50;;;10.80;99.90;;;;;;5037102;28;20471;-74
2022/04/25 01:44:42;;;;;;;26.87;21.50;;;10.90;99.90;;;;;;5031470;28;20953;-73
2022/04/25 01:47:08;;;;;;;28.17;20.80;;;10.90;99.90;;;;;;5039525;28;20426;-73
2022/04/25 01:49:35;;;;;;;26.33;19.83;;;10.80;99.90;;;;;;5036433;28;20510;-73
2022/04/25 01:52:10;;;;;;;29.30;23.37;;;10.90;99.90;;;;;;5033519;28;20461;-72
2022/04/25 01:54:35;;;;;;;27.47;22.13;;;10.80;99.90;;;;;;5033421;28;20518;-73
2022/04/25 01:57:01;;;;;;;28.53;22.00;;;10.90;99.90;;;;;;5029878;28;20435;-72
2022/04/25 01:59:28;;;;;;;29.10;22.63;;;11.10;99.90;;;;;;5030428;28;20207;-72
2022/04/25 02:01:54;;;;;;;25.73;21.37;;;11.20;99.90;;;;;;5028930;28;20321;-72
2022/04/25 02:04:21;;;;;;;27.87;21.13;;;11.10;99.90;;;;;;5029994;28;20442;-73
2022/04/25 02:06:47;;;;;;;27.30;20.23;;;11.10;99.90;;;;;;5033695;28;20183;-74
2022/04/25 02:09:13;;;;;;;27.43;20.83;;;11.10;99.90;;;;;;5033019;28;20431;-73
2022/04/25 02:11:39;;;;;;;27.50;21.93;;;11.20;99.90;;;;;;5032940;28;20466;-72
2022/04/25 02:14:05;;;;;;;25.67;21.40;;;11.20;99.90;;;;;;5031188;28;20208;-73
2022/04/25 02:16:31;;;;;;;26.90;19.57;;;11.10;99.90;;;;;;5027994;28;20466;-74
2022/04/25 02:18:57;;;;;;;27.93;21.50;;;11.10;99.90;;;;;;5033651;28;20195;-73
2022/04/25 02:21:23;;;;;;;24.47;20.03;;;11.00;99.90;;;;;;5034452;28;20483;-74
2022/04/25 02:23:49;;;;;;;24.97;20.17;;;11.10;99.90;;;;;;5029685;28;20589;-73
2022/04/25 02:26:14;;;;;;;27.70;22.97;;;11.20;99.90;;;;;;5026593;28;20439;-72
2022/04/25 02:28:40;;;;;;;27.30;22.20;;;10.90;99.90;;;;;;5026800;28;20706;-74
2022/04/25 02:31:07;;;;;;;33.20;23.80;;;10.80;99.90;;;;;;5023395;28;20188;-73
2022/04/25 02:33:35;;;;;;;29.40;22.67;;;10.80;99.90;;;;;;5029132;28;20195;-74
2022/04/25 02:36:04;;;;;;;29.50;24.00;;;10.70;99.90;;;;;;5032941;28;20944;-72
2022/04/25 02:38:31;;;;;;;31.80;23.73;;;10.70;99.90;;;;;;5034268;28;20442;-73
2022/04/25 02:41:06;;;;;;;30.23;23.30;;;10.70;99.90;;;;;;5028752;28;20492;-74
2022/04/25 02:43:43;;;;;;;33.80;23.43;;;10.70;99.90;;;;;;5030808;28;20501;-72
2022/04/25 02:46:18;;;;;;;31.80;24.20;;;10.80;99.90;;;;;;5028876;28;20472;-73
2022/04/25 02:48:45;;;;;;;32.73;24.10;;;10.70;99.90;;;;;;5030269;28;20430;-74
2022/04/25 02:51:14;;;;;;;29.83;22.40;;;10.80;99.90;;;;;;5029744;28;20517;-73
2022/04/25 02:53:40;;;;;;;31.90;24.90;;;10.70;99.90;;;;;;5034155;28;20435;-74
2022/04/25 02:56:08;;;;;;;31.30;23.87;;;10.70;99.90;;;;;;5032449;28;20493;-73
2022/04/25 02:58:37;;;;;;;31.30;22.40;;;10.70;99.90;;;;;;5027953;28;20445;-73
2022/04/25 03:01:06;;;;;;;32.20;23.87;;;10.70;99.90;;;;;;5028160;28;20541;-73
2022/04/25 03:03:33;;;;;;;28.00;22.13;;;10.70;99.90;;;;;;5029030;28;20462;-72
2022/04/25 03:05:59;;;;;;;29.10;21.83;;;10.60;99.90;;;;;;5034797;28;20426;-73
2022/04/25 03:08:25;;;;;;;29.70;22.70;;;10.70;99.90;;;;;;5030456;28;20437;-73
2022/04/25 03:10:52;;;;;;;31.00;22.87;;;10.70;99.90;;;;;;5030177;28;20503;-73
2022/04/25 03:13:19;;;;;;;32.57;23.07;;;10.90;99.90;;;;;;5032271;28;22959;-74
2022/04/25 03:15:46;;;;;;;29.60;21.77;;;10.80;99.90;;;;;;5030663;28;21472;-72
2022/04/25 03:18:18;;;;;;;28.93;22.70;;;10.90;99.90;;;;;;5033779;28;20437;-74
2022/04/25 03:20:45;;;;;;;31.70;23.73;;;10.90;99.90;;;;;;5034581;28;20469;-72
2022/04/25 03:23:11;;;;;;;29.20;22.83;;;10.80;99.90;;;;;;5035323;28;20469;-73
2022/04/25 03:25:38;;;;;;;28.10;21.77;;;10.90;99.90;;;;;;5033135;28;20430;-73
2022/04/25 03:28:05;;;;;;;30.43;23.57;;;10.80;99.90;;;;;;5031386;28;20540;-73
2022/04/25 03:30:31;;;;;;;30.13;24.30;;;10.60;99.90;;;;;;5036006;28;21146;-74
2022/04/25 03:32:56;;;;;;;33.60;24.00;;;10.60;99.90;;;;;;5031511;28;20466;-72
2022/04/25 03:35:23;;;;;;;30.03;23.57;;;10.60;99.90;;;;;;5049029;28;20802;-73
2022/04/25 03:37:50;;;;;;;32.70;24.53;;;10.60;99.90;;;;;;5031754;28;20230;-73
2022/04/25 03:40:16;;;;;;;28.10;22.70;;;10.70;99.90;;;;;;5030543;28;21322;-74
2022/04/25 03:42:44;;;;;;;29.90;23.57;;;10.80;99.90;;;;;;5036082;28;20451;-72
2022/04/25 03:45:11;;;;;;;32.60;24.77;;;10.80;99.90;;;;;;5028764;28;20525;-73
2022/04/25 03:47:41;;;;;;;29.07;21.63;;;10.80;99.90;;;;;;5033575;28;20434;-75
2022/04/25 03:50:08;;;;;;;32.13;24.60;;;10.90;99.90;;;;;;5029281;28;20854;-74
2022/04/25 03:52:38;;;;;;;32.23;23.87;;;10.90;99.90;;;;;;5043600;28;20543;-73
2022/04/25 03:57:53;;;;;;;31.73;22.73;;;10.90;99.90;;;;;;5030650;28;20444;-72
2022/04/25 04:00:20;;;;;;;29.83;22.33;;;10.80;99.90;;;;;;5028385;28;20474;-74
2022/04/25 04:02:45;;;;;;;30.70;23.17;;;10.90;99.90;;;;;;5023865;28;20446;-73
2022/04/25 04:05:11;;;;;;;31.93;24.43;;;10.80;99.90;;;;;;5028495;28;20442;-74
2022/04/25 04:07:37;;;;;;;33.50;23.50;;;10.70;99.90;;;;;;5030763;28;20195;-72
2022/04/25 04:10:04;;;;;;;31.10;23.00;;;10.50;99.90;;;;;;5025745;28;20439;-72
2022/04/25 04:12:31;;;;;;;38.97;25.10;;;10.50;99.90;;;;;;5030295;28;20203;-74
2022/04/25 04:15:05;;;;;;;35.90;25.50;;;10.50;99.90;;;;;;5031723;28;20449;-75
2022/04/25 04:17:31;;;;;;;33.90;25.70;;;10.40;99.90;;;;;;5032259;28;20702;-74
2022/04/25 04:19:57;;;;;;;31.47;24.47;;;10.70;99.90;;;;;;5027725;28;21306;-74
2022/04/25 04:22:25;;;;;;;33.60;23.93;;;10.90;99.90;;;;;;5030689;28;20458;-72
2022/04/25 04:24:51;;;;;;;30.53;23.40;;;11.10;99.90;;;;;;5033123;28;20180;-73
2022/04/25 04:27:16;;;;;;;29.23;23.47;;;11.00;99.90;;;;;;5031751;28;20441;-74
2022/04/25 04:29:42;;;;;;;37.00;25.00;;;11.00;99.90;;;;;;5033649;28;20532;-74
2022/04/25 04:32:09;;;;;;;29.80;23.17;;;11.10;99.90;;;;;;5031859;28;20245;-73
2022/04/25 04:34:36;;;;;;;29.30;23.23;;;11.20;99.90;;;;;;5030962;28;20567;-72
2022/04/25 04:37:03;;;;;;;28.53;22.97;;;11.30;99.90;;;;;;5047459;28;20446;-73
2022/04/25 04:39:31;;;;;;;32.10;25.10;;;11.30;99.90;;;;;;5036103;28;20452;-73
2022/04/25 04:41:56;;;;;;;30.90;23.70;;;11.10;99.90;;;;;;5032416;28;20463;-74
2022/04/25 04:44:22;;;;;;;33.70;24.57;;;11.30;99.90;;;;;;5032962;28;20500;-72
2022/04/25 04:46:47;;;;;;;29.90;23.33;;;11.20;99.90;;;;;;5035055;28;20178;-73
2022/04/25 04:49:14;;;;;;;30.70;23.20;;;11.20;99.90;;;;;;5031018;28;20730;-72
2022/04/25 04:51:40;;;;;;;30.90;23.70;;;11.50;99.90;;;;;;5037279;28;20207;-73
2022/04/25 04:54:05;;;;;;;30.13;23.30;;;11.70;99.90;;;;;;5038969;28;20445;-73
2022/04/25 04:56:32;;;;;;;30.33;23.87;;;11.70;99.90;;;;;;5044328;28;20242;-73
2022/04/25 04:58:59;;;;;;;33.10;25.10;;;11.60;99.90;;;;;;5035880;28;20191;-73
2022/04/25 05:01:26;;;;;;;30.03;22.93;;;11.70;99.90;;;;;;5030957;28;20608;-72
2022/04/25 05:03:52;;;;;;;28.40;22.77;;;11.80;99.90;;;;;;5031394;28;20438;-74
2022/04/25 05:06:18;;;;;;;28.17;22.40;;;11.80;99.90;;;;;;5035390;28;20434;-75
2022/04/25 05:08:43;;;;;;;27.20;22.33;;;11.90;99.90;;;;;;5033897;28;20804;-74
2022/04/25 05:11:09;;;;;;;30.97;23.87;;;11.80;99.90;;;;;;5032188;28;20294;-72
2022/04/25 05:13:36;;;;;;;31.60;22.93;;;11.80;99.90;;;;;;5037949;28;20784;-74
2022/04/25 05:16:02;;;;;;;31.10;23.37;;;11.60;99.90;;;;;;5034899;28;20434;-74
2022/04/25 05:18:32;;;;;;;29.57;23.60;;;11.60;99.90;;;;;;5036155;28;20446;-74
2022/04/25 05:20:58;;;;;;;32.60;24.23;;;11.70;99.90;;;;;;5033268;28;21165;-73
2022/04/25 05:23:24;;;;;;;32.60;22.97;;;11.70;99.90;;;;;;5033225;28;20556;-72
2022/04/25 05:25:49;;;;;;;32.80;23.80;;;11.60;99.90;;;;;;5033904;28;20418;-74
2022/04/25 05:28:15;;;;;;;33.40;25.93;;;11.80;99.90;;;;;;5046875;28;20430;-74
2022/04/25 05:30:40;;;;;;;36.80;25.17;;;11.70;99.90;;;;;;5031575;28;20550;-73
2022/04/25 05:33:06;;;;;;;35.80;25.60;;;11.60;99.90;;;;;;5032962;28;20196;-72
2022/04/25 05:35:33;;;;;;;32.07;25.07;;;11.50;99.90;;;;;;5048277;28;20690;-73
2022/04/25 05:38:00;;;;;;;34.00;25.13;;;11.70;99.90;;;;;;5030677;28;20525;-72
2022/04/25 05:40:26;;;;;;;33.10;25.03;;;11.90;99.90;;;;;;5030801;28;20461;-72
2022/04/25 05:42:53;;;;;;;31.60;24.60;;;12.10;99.90;;;;;;5034582;28;20453;-74
2022/04/25 05:45:21;;;;;;;33.93;24.83;;;12.20;99.90;;;;;;5032024;28;20180;-74
2022/04/25 05:47:48;;;;;;;34.10;26.43;;;12.20;99.90;;;;;;5033849;28;20426;-72
2022/04/25 05:53:01;;;;;;;26.63;22.23;;;12.30;99.90;;;;;;5038619;28;20501;-73
2022/04/25 05:55:30;;;;;;;32.93;25.33;;;12.20;99.90;;;;;;5031610;28;20439;-73
2022/04/25 05:57:57;;;;;;;29.50;23.70;;;12.30;99.90;;;;;;5028424;28;20465;-72
2022/04/25 06:00:24;;;;;;;34.37;25.67;;;12.40;99.90;;;;;;5031193;28;21037;-73
2022/04/25 06:02:50;;;;;;;28.67;22.43;;;12.40;99.90;;;;;;5028342;28;20462;-74
2022/04/25 06:05:16;;;;;;;31.00;25.60;;;12.20;99.90;;;;;;5033781;28;20438;-74
2022/04/25 06:07:46;;;;;;;30.40;24.07;;;12.00;99.90;;;;;;5034158;28;20434;-73
2022/04/25 06:10:14;;;;;;;36.53;26.63;;;12.20;99.90;;;;;;5028609;28;20442;-74
2022/04/25 06:12:42;;;;;;;28.87;24.23;;;12.40;99.90;;;;;;5030042;28;20466;-72
2022/04/25 06:15:08;;;;;;;30.07;24.23;;;12.50;99.90;;;;;;5027528;28;20512;-73
2022/04/25 06:17:35;;;;;;;27.33;22.47;;;12.70;99.90;;;;;;5029926;28;20458;-74
2022/04/25 06:20:00;;;;;;;27.87;23.10;;;12.70;99.90;;;;;;5033284;28;20462;-74
2022/04/25 06:22:26;;;;;;;30.67;23.00;;;12.80;99.90;;;;;;5033924;28;20997;-73
2022/04/25 06:24:52;;;;;;;29.90;23.40;;;12.80;99.90;;;;;;5033211;28;20266;-72
2022/04/25 06:27:17;;;;;;;33.17;24.60;;;12.80;99.90;;;;;;5030222;28;20269;-75
2022/04/25 06:29:46;;;;;;;28.27;22.30;;;12.80;99.90;;;;;;5028603;28;20175;-75
2022/04/25 06:32:12;;;;;;;30.00;22.43;;;13.10;99.90;;;;;;5028690;28;20200;-76
2022/04/25 06:34:38;;;;;;;26.40;21.93;;;13.10;99.90;;;;;;5034120;28;20470;-76
2022/04/25 06:37:05;;;;;;;26.60;22.50;;;13.10;99.90;;;;;;5046979;28;20434;-76
2022/04/25 06:39:30;;;;;;;29.30;22.73;;;13.10;99.90;;;;;;5038342;28;20585;-74
2022/04/25 06:41:56;;;;;;;28.83;21.57;;;13.10;99.90;;;;;;5034643;28;20549;-75
2022/04/25 06:44:21;;;;;;;30.00;23.33;;;13.20;99.90;;;;;;5031743;28;20187;-74
2022/04/25 06:46:47;;;;;;;30.23;22.83;;;13.20;99.90;;;;;;5036100;28;20203;-74
2022/04/25 06:49:25;;;;;;;26.33;21.27;;;13.20;99.90;;;;;;5034504;28;20172;-73
2022/04/25 06:51:52;;;;;;;25.67;19.63;;;13.40;99.90;;;;;;5034666;28;20234;-72
2022/04/25 06:54:19;;;;;;;27.70;20.80;;;13.50;99.90;;;;;;5031301;28;20442;-73
2022/04/25 06:56:45;;;;;;;25.20;21.33;;;13.50;99.90;;;;;;5034924;28;20446;-72
2022/04/25 06:59:11;;;;;;;26.10;21.33;;;13.50;99.90;;;;;;5032863;28;20450;-73
2022/04/25 07:01:39;;;;;;;28.17;22.57;;;13.50;99.90;;;;;;5031686;28;20627;-73
2022/04/25 07:04:05;;;;;;;29.03;23.47;;;13.50;99.90;;;;;;5029461;28;20275;-74
2022/04/25 07:06:30;;;;;;;28.40;23.07;;;13.50;99.90;;;;;;5028446;28;20635;-75
2022/04/25 07:08:56;;;;;;;26.90;20.83;;;13.60;99.90;;;;;;5049242;28;21036;-74
2022/04/25 07:11:21;;;;;;;24.53;20.10;;;13.70;99.90;;;;;;5029562;28;20188;-73
2022/04/25 07:13:48;;;;;;;28.80;22.97;;;13.60;99.90;;;;;;5033186;28;20172;-73
2022/04/25 07:16:14;;;;;;;26.60;23.03;;;13.60;99.90;;;;;;5031962;28;20352;-72
2022/04/25 07:18:41;;;;;;;29.23;21.70;;;13.60;99.90;;;;;;5029351;28;20449;-73
2022/04/25 07:29:20;;;;;;;25.07;21.17;;;13.90;99.90;;;;;;5034169;28;20437;-72
2022/04/25 07:31:46;;;;;;;26.27;21.07;;;13.90;99.90;;;;;;5032553;28;20454;-74
2022/04/25 07:34:11;;;;;;;24.93;20.93;;;14.00;99.90;;;;;;5030572;28;20273;-73
2022/04/25 07:36:37;;;;;;;25.90;21.47;;;14.10;99.90;;;;;;5030190;28;20282;-72
2022/04/25 07:39:03;;;;;;;25.60;20.03;;;14.20;99.90;;;;;;5031943;28;20188;-72
2022/04/25 07:41:29;;;;;;;25.07;21.40;;;14.20;99.90;;;;;;5033247;28;20317;-74
2022/04/25 07:43:55;;;;;;;24.43;20.90;;;14.30;99.90;;;;;;5030666;28;21184;-73
2022/04/25 07:46:25;;;;;;;25.47;19.50;;;14.20;99.90;;;;;;5033214;28;22066;-74
2022/04/25 07:48:53;;;;;;;27.03;22.10;;;14.20;99.90;;;;;;5032650;28;20441;-71
2022/04/25 07:51:19;;;;;;;26.10;21.10;;;14.20;99.90;;;;;;5028334;28;20434;-72
2022/04/25 07:53:45;;;;;;;28.57;22.50;;;14.10;99.90;;;;;;5032034;28;20470;-74
2022/04/25 07:56:10;;;;;;;26.83;20.97;;;13.90;99.90;;;;;;5032306;28;20183;-73
2022/04/25 07:58:37;;;;;;;24.30;19.53;;;13.90;99.90;;;;;;5032422;28;20226;-73
2022/04/25 08:01:03;;;;;;;21.70;18.23;;;13.90;99.90;;;;;;5024923;28;20220;-72
2022/04/25 08:03:29;;;;;;;25.90;18.90;;;13.90;99.90;;;;;;5028800;28;20732;-74
2022/04/25 08:05:55;;;;;;;25.37;19.90;;;13.80;99.90;;;;;;5031340;28;20438;-73
2022/04/25 08:08:21;;;;;;;25.40;20.10;;;13.80;99.90;;;;;;5026333;28;20497;-73
2022/04/25 08:10:47;;;;;;;26.30;21.50;;;13.80;99.90;;;;;;5033475;28;21072;-74
2022/04/25 08:18:41;;;;;;;23.90;19.13;;;14.20;99.90;;;;;;5031509;28;20454;-75
2022/04/25 08:21:07;;;;;;;24.13;19.03;;;14.30;99.90;;;;;;5030617;28;20471;-75
2022/04/25 08:23:33;;;;;;;23.73;18.53;;;14.00;99.90;;;;;;5037719;28;20671;-75
2022/04/25 08:25:59;;;;;;;21.07;16.80;;;14.20;99.90;;;;;;5034155;28;20238;-74
2022/04/25 08:28:25;;;;;;;21.00;15.60;;;14.30;99.90;;;;;;5026840;28;20220;-73
2022/04/25 08:30:52;;;;;;;20.70;16.80;;;14.20;99.90;;;;;;5034656;28;20482;-72
2022/04/25 08:33:19;;;;;;;22.10;16.10;;;14.10;99.90;;;;;;5036330;28;20455;-74
2022/04/25 08:35:45;;;;;;;21.90;17.03;;;13.90;99.90;;;;;;5035549;28;20438;-74
2022/04/25 08:38:11;;;;;;;20.50;17.17;;;14.10;99.90;;;;;;5032568;28;20519;-74
2022/04/25 08:40:38;;;;;;;22.80;17.13;;;14.10;99.90;;;;;;5035312;28;20467;-75
2022/04/25 08:43:06;;;;;;;21.53;18.20;;;14.30;99.90;;;;;;5041522;28;20200;-74
2022/04/25 08:45:35;;;;;;;24.67;17.90;;;14.10;99.90;;;;;;5035384;28;20479;-72
2022/04/25 08:48:01;;;;;;;20.40;17.00;;;14.00;99.90;;;;;;5034417;28;20446;-74
2022/04/25 08:50:30;;;;;;;24.50;17.70;;;14.10;99.90;;;;;;5037343;28;20422;-74
2022/04/25 08:52:57;;;;;;;22.43;17.97;;;14.20;99.90;;;;;;5038967;28;21253;-73
2022/04/25 08:55:23;;;;;;;20.90;17.00;;;14.00;99.90;;;;;;5038150;28;20426;-72
2022/04/25 08:57:51;;;;;;;21.97;16.80;;;14.00;99.90;;;;;;5035735;28;20466;-73
2022/04/25 09:00:17;;;;;;;21.60;16.40;;;13.90;99.90;;;;;;5035650;28;20581;-74
2022/04/25 09:02:44;;;;;;;21.87;16.30;;;14.00;99.90;;;;;;5029826;28;20472;-73
2022/04/25 09:05:11;;;;;;;19.97;17.23;;;14.20;99.90;;;;;;5030561;28;20442;-74
2022/04/25 09:07:38;;;;;;;24.30;15.20;;;14.30;99.90;;;;;;5030196;28;20972;-72
2022/04/25 09:10:12;;;;;;;18.70;14.80;;;14.50;99.90;;;;;;5033632;28;20462;-74
2022/04/25 09:12:41;;;;;;;19.27;15.53;;;14.80;99.90;;;;;;5032685;28;20453;-74
2022/04/25 09:15:08;;;;;;;18.27;15.30;;;14.50;99.90;;;;;;5036449;28;20445;-72
2022/04/25 09:17:34;;;;;;;19.30;15.37;;;14.40;99.90;;;;;;5033640;28;20438;-73
2022/04/25 09:20:01;;;;;;;19.17;15.40;;;14.50;99.90;;;;;;5034157;28;20508;-73
2022/04/25 09:22:35;;;;;;;21.20;16.67;;;14.70;99.90;;;;;;5036677;28;20461;-73
2022/04/25 09:25:12;;;;;;;17.43;15.57;;;14.60;99.90;;;;;;5036379;28;20441;-72
2022/04/25 09:27:39;;;;;;;17.97;14.17;;;14.50;99.90;;;;;;5034966;28;20441;-73
2022/04/25 09:30:18;;;;;;;17.00;15.00;;;14.50;99.90;;;;;;5034169;28;20431;-73
2022/04/25 09:32:45;;;;;;;15.37;13.60;;;14.60;99.90;;;;;;5035308;28;20447;-74
2022/04/25 09:35:33;;;;;;;17.90;13.93;;;14.50;99.90;;;;;;5036674;28;20959;-72
2022/04/25 09:38:01;;;;;;;16.17;13.60;;;14.90;99.90;;;;;;5034111;28;20439;-74
2022/04/25 09:40:29;;;;;;;17.57;14.53;;;15.10;99.90;;;;;;5034705;28;20465;-74
2022/04/25 09:43:03;;;;;;;16.03;13.73;;;15.20;99.90;;;;;;5032115;28;20478;-74
2022/04/25 09:45:29;;;;;;;17.53;15.40;;;15.20;99.90;;;;;;5030975;28;20509;-74
2022/04/25 09:47:56;;;;;;;14.83;13.33;;;15.50;99.90;;;;;;5033678;28;20433;-74
2022/04/25 09:50:22;;;;;;;14.27;12.73;;;15.70;99.90;;;;;;5030800;28;21017;-73
2022/04/25 09:53:03;;;;;;;14.97;13.37;;;15.90;99.90;;;;;;5031639;28;20496;-74
2022/04/25 09:55:30;;;;;;;16.60;14.37;;;15.90;99.90;;;;;;5035216;28;20199;-73
2022/04/25 09:57:56;;;;;;;16.53;13.47;;;15.70;99.90;;;;;;5038156;28;20449;-74
2022/04/25 10:00:28;;;;;;;15.43;13.40;;;15.60;99.90;;;;;;5037444;28;20473;-72
2022/04/25 10:02:54;;;;;;;15.33;13.53;;;15.70;99.90;;;;;;5038815;28;20463;-74
2022/04/25 10:05:20;;;;;;;15.97;13.33;;;16.00;99.90;;;;;;5037856;28;20431;-73
2022/04/25 10:07:46;;;;;;;15.73;13.13;;;16.30;99.90;;;;;;5035811;28;20439;-74
2022/04/25 10:10:13;;;;;;;15.20;13.30;;;16.30;99.90;;;;;;5037606;28;20835;-74
2022/04/25 10:12:39;;;;;;;14.10;12.60;;;16.30;99.90;;;;;;5036783;28;20486;-74
2022/04/25 10:15:08;;;;;;;13.57;11.17;;;15.70;99.90;;;;;;5041190;28;20434;-73
2022/04/25 10:17:40;;;;;;;14.77;13.27;;;15.80;99.90;;;;;;5037743;28;20797;-72
2022/04/25 10:20:08;;;;;;;13.20;11.73;;;16.00;99.90;;;;;;5039928;28;20459;-72
2022/04/25 10:22:35;;;;;;;16.77;13.00;;;16.30;99.90;;;;;;5040555;28;20453;-74
2022/04/25 10:25:03;;;;;;;12.20;10.97;;;16.40;99.90;;;;;;5036858;28;20449;-72
2022/04/25 10:27:32;;;;;;;12.27;10.13;;;16.30;99.90;;;;;;5036683;28;20438;-73
2022/04/25 10:30:09;;;;;;;12.17;10.87;;;16.20;99.90;;;;;;5034646;28;20816;-74
2022/04/25 10:32:35;;;;;;;12.17;10.83;;;15.70;99.90;;;;;;5038478;28;20452;-73
2022/04/25 10:35:00;;;;;;;13.00;11.63;;;15.60;99.90;;;;;;5031634;28;20431;-74
2022/04/25 10:37:36;;;;;;;12.13;10.83;;;15.60;99.90;;;;;;5032565;28;20189;-74
2022/04/25 10:40:07;;;;;;;13.20;11.80;;;15.50;99.90;;;;;;5033398;28;21087;-73
2022/04/25 10:45:56;;;;;;;11.03;9.50;;;15.60;99.90;;;;;;5036921;28;20457;-73
2022/04/25 10:48:22;;;;;;;12.50;11.17;;;15.60;99.90;;;;;;5034880;28;21013;-73
2022/04/25 10:51:10;;;;;;;12.83;11.50;;;15.60;99.90;;;;;;5035009;28;20427;-73
2022/04/25 10:54:05;;;;;;;12.00;10.80;;;15.40;99.90;;;;;;5037384;28;20183;-74
2022/04/25 10:56:32;;;;;;;14.07;12.37;;;15.50;99.90;;;;;;5035066;28;20434;-73
2022/04/25 10:59:26;;;;;;;13.10;11.80;;;15.70;99.90;;;;;;5037143;28;20812;-74
2022/04/25 11:01:53;;;;;;;14.03;12.10;;;15.80;99.90;;;;;;5036984;28;21356;-74
2022/04/25 11:04:21;;;;;;;15.50;11.77;;;16.00;99.90;;;;;;5035809;28;21092;-73
2022/04/25 11:06:47;;;;;;;10.80;9.60;;;15.90;99.90;;;;;;5037136;28;20530;-73
2022/04/25 11:09:35;;;;;;;10.23;9.13;;;16.00;99.90;;;;;;5039305;28;20430;-72
2022/04/25 11:12:01;;;;;;;9.97;8.97;;;15.70;99.90;;;;;;5034478;28;20461;-72
2022/04/25 11:14:30;;;;;;;11.70;10.50;;;16.00;99.90;;;;;;5031866;28;20441;-71
2022/04/25 11:17:13;;;;;;;14.03;10.17;;;16.00;99.90;;;;;;5037760;28;20250;-73
2022/04/25 11:19:46;;;;;;;12.80;10.40;;;16.20;99.90;;;;;;5035074;28;20436;-73
2022/04/25 11:22:52;;;;;;;11.33;9.90;;;16.20;99.90;;;;;;5037287;28;20453;-73
2022/04/25 11:25:27;;;;;;;10.57;9.57;;;16.30;99.90;;;;;;5038186;28;20421;-73
2022/04/25 11:28:08;;;;;;;11.47;10.30;;;16.40;99.90;;;;;;5036730;28;20441;-72
2022/04/25 11:30:34;;;;;;;9.53;8.50;;;16.30;99.90;;;;;;5038357;28;20484;-74
2022/04/25 11:33:12;;;;;;;8.13;6.80;;;16.60;99.90;;;;;;5032861;28;20508;-71
2022/04/25 11:35:39;;;;;;;8.90;7.70;;;16.80;99.90;;;;;;5038027;28;20785;-72
2022/04/25 11:38:06;;;;;;;8.90;8.00;;;16.70;99.90;;;;;;5038488;28;20454;-74
2022/04/25 11:40:32;;;;;;;8.27;7.37;;;16.60;99.90;;;;;;5033589;28;20457;-73
2022/04/25 11:42:59;;;;;;;10.30;8.80;;;16.70;99.90;;;;;;5053375;28;20443;-71
2022/04/25 11:45:27;;;;;;;10.27;7.57;;;16.90;99.90;;;;;;5038339;28;20632;-74
2022/04/25 11:47:53;;;;;;;8.97;7.20;;;17.00;99.90;;;;;;5039835;28;20458;-71
2022/04/25 11:50:20;;;;;;;8.13;7.43;;;17.20;99.90;;;;;;5036224;28;20439;-74
2022/04/25 11:52:51;;;;;;;9.00;7.07;;;17.40;99.90;;;;;;5031600;28;20234;-73
2022/04/25 11:55:18;;;;;;;7.43;6.73;;;17.70;99.90;;;;;;5036817;28;20463;-72
2022/04/25 11:57:45;;;;;;;8.00;7.30;;;17.70;99.90;;;;;;5035784;28;20430;-71
2022/04/25 12:00:19;;;;;;;7.57;6.77;;;17.70;99.90;;;;;;5036469;28;20473;-73
2022/04/25 12:02:46;;;;;;;7.70;7.00;;;17.40;99.90;;;;;;5031364;28;20453;-71
2022/04/25 12:05:13;;;;;;;7.77;7.00;;;17.60;99.90;;;;;;5041305;28;20848;-72
2022/04/25 12:15:34;;;;;;;7.43;6.73;;;17.90;99.90;;;;;;5038631;28;20442;-73
2022/04/25 12:15:58;;;;;;;7.13;6.53;;;19.00;99.90;;;;;;5037307;28;20432;-72
2022/04/25 12:18:26;;;;;;;7.80;7.00;;;19.70;99.90;;;;;;5030974;28;20528;-72
2022/04/25 12:21:09;;;;;;;6.37;5.77;;;20.00;99.90;;;;;;5034958;28;20977;-71
2022/04/25 12:23:45;;;;;;;6.57;5.97;;;20.20;99.90;;;;;;5035765;28;20434;-71
2022/04/25 12:26:23;;;;;;;6.67;6.03;;;20.10;99.90;;;;;;5040898;28;20558;-72
2022/04/25 12:29:00;;;;;;;7.07;6.47;;;20.10;99.90;;;;;;5031228;28;20427;-72
2022/04/25 12:31:36;;;;;;;6.80;6.30;;;19.50;99.90;;;;;;5035722;28;20426;-72
2022/04/25 12:34:07;;;;;;;6.73;6.13;;;19.50;99.90;;;;;;5053034;28;20973;-71
2022/04/25 12:36:33;;;;;;;11.10;6.43;;;19.90;99.90;;;;;;5033166;28;20422;-73
2022/04/25 12:39:08;;;;;;;6.63;6.03;;;19.10;99.90;;;;;;5039480;28;20479;-73
2022/04/25 12:41:38;;;;;;;7.30;6.70;;;18.90;99.90;;;;;;5040069;28;20504;-72
2022/04/25 12:44:10;;;;;;;6.00;5.50;;;18.70;99.90;;;;;;5040017;28;20453;-72
2022/04/25 12:46:47;;;;;;;6.90;6.30;;;18.70;99.90;;;;;;5051252;28;20422;-72
2022/04/25 12:49:31;;;;;;;6.20;5.70;;;19.10;99.90;;;;;;5040656;28;20457;-73
2022/04/25 12:51:59;;;;;;;6.90;6.23;;;19.30;99.90;;;;;;5051979;28;20451;-72
2022/04/25 12:54:42;;;;;;;10.13;7.83;;;19.70;99.90;;;;;;5043777;28;20989;-72
2022/04/25 12:57:15;;;;;;;8.93;7.00;;;19.10;99.90;;;;;;5039444;28;21376;-70
2022/04/25 12:59:46;;;;;;;7.97;6.00;;;18.60;99.90;;;;;;5039075;28;20511;-73
2022/04/25 13:02:17;;;;;;;7.50;6.27;;;18.90;99.90;;;;;;5040559;28;20454;-72
2022/04/25 13:04:56;;;;;;;7.73;6.23;;;18.60;99.90;;;;;;5034359;28;20434;-74